CDT,Max TemperatureF,Mean TemperatureF,Min TemperatureF,Max Dew PointF,MeanDew PointF,Min DewpointF,Max Humidity, Mean Humidity, Min Humidity, Max Sea Level PressureIn, Mean Sea Level PressureIn, Min Sea Level PressureIn, Max VisibilityMiles, Mean VisibilityMiles, Min VisibilityMiles, Max Wind SpeedMPH, Mean Wind SpeedMPH, Max Gust SpeedMPH,PrecipitationIn, CloudCover, Events, WindDirDegrees
2013-8-1,75,65,55,57,55,54,94,70,47,29.92,29.89,29.86,10,10,6,12,3,16,0.00,2,,302
2013-8-2,77,65,55,61,55,48,100,71,41,29.95,29.85,29.81,10,10,10,10,4,17,0.05,2,Thunderstorm,319
2013-8-3,73,62,51,57,52,48,94,71,41,30.15,30.04,29.95,10,10,10,14,5,16,0.00,2,,342
2013-8-4,68,58,48,54,49,43,100,72,40,30.24,30.17,30.10,10,10,7,10,4,,0.00,1,,85
2013-8-5,69,61,53,63,57,50,94,84,73,30.10,29.96,29.84,10,10,8,14,5,20,0.09,5,,203
2013-8-6,78,69,60,66,63,59,100,84,57,29.85,29.79,29.70,10,9,4,12,5,,0.01,3,,227
2013-8-7,73,64,55,64,59,54,100,83,60,30.01,29.83,29.66,10,9,1,24,7,36,1.30,4,Thunderstorm,332
2013-8-8,75,60,48,55,53,48,100,71,44,30.05,30.01,29.96,10,9,1,10,3,,0.01,0,,247
2013-8-9,75,64,55,59,53,48,94,68,41,30.06,29.96,29.92,10,10,9,14,4,21,0.00,5,,310
2013-8-10,71,63,55,57,55,52,94,74,53,30.14,30.11,30.06,10,10,10,10,2,,0.00,6,,267
2013-8-11,73,63,53,59,56,54,100,78,53,30.10,30.06,30.01,10,10,10,14,3,17,0.00,0,,240
2013-8-12,75,64,51,64,58,45,100,83,53,30.03,29.96,29.88,10,9,0,20,4,24,0.00,4,Thunderstorm,299
2013-8-13,64,54,44,54,46,43,93,73,52,30.16,30.10,30.03,10,10,10,17,7,21,0.04,2,,355
2013-8-14,68,54,42,54,47,41,100,75,46,30.22,30.16,30.10,10,10,7,9,3,,0.03,2,,276
2013-8-15,77,62,46,57,52,45,100,71,41,30.11,30.08,30.04,10,10,5,12,4,17,0.00,3,,295
2013-8-16,78,64,51,57,55,50,100,70,42,30.18,30.14,30.10,10,9,2,12,3,,0.00,0,,183
2013-8-17,80,66,53,63,56,52,100,67,41,30.23,30.19,30.15,10,10,7,12,4,16,0.00,0,,214
2013-8-18,80,66,51,63,57,52,100,69,42,30.20,30.13,30.06,10,10,3,12,5,18,0.00,1,,212
2013-8-19,80,68,57,64,60,55,94,72,51,30.06,30.00,29.95,10,10,6,15,6,23,0.00,0,,236
2013-8-20,84,73,62,68,64,61,94,72,51,30.03,29.98,29.94,10,10,5,17,8,25,0.00,0,,227
2013-8-21,86,75,64,73,67,63,100,76,62,29.98,29.92,29.83,10,9,1,26,9,39,0.57,2,Thunderstorm,231
2013-8-22,77,68,60,64,59,50,100,74,39,30.15,30.06,29.96,10,8,0,9,4,,0.01,0,,47
2013-8-23,73,62,51,61,55,50,94,74,57,30.22,30.18,30.15,10,10,8,9,4,,0.00,0,,80
2013-8-24,78,64,51,63,58,52,100,72,44,30.25,30.20,30.13,10,10,7,15,6,20,0.00,0,,200
2013-8-25,89,79,69,73,69,61,83,71,55,30.13,30.04,29.96,10,10,9,17,11,25,0.00,1,,229
2013-8-26,84,76,69,73,70,66,94,81,66,30.06,29.97,29.90,10,10,3,17,7,24,0.36,3,Thunderstorm,237
2013-8-27,78,72,68,73,70,68,100,93,83,29.99,29.87,29.82,10,7,0,14,7,20,1.73,7,Thunderstorm,122
2013-8-28,82,73,64,70,69,64,100,84,58,30.05,29.98,29.88,10,6,0,8,4,,0.00,3,,55
2013-8-29,84,73,62,72,68,63,100,82,51,30.08,30.02,29.95,10,7,0,13,3,17,0.06,1,,204
2013-8-30,80,72,62,73,67,61,94,82,61,29.97,29.84,29.78,10,9,7,17,11,24,0.06,4,Thunderstorm,318
2013-8-31,75,65,57,66,62,57,100,88,69,29.91,29.86,29.79,10,8,0,9,4,,0.00,4,,16